createdAt,value
2023-01-17T00:00:35.146Z,0.70
2023-01-17T00:03:01.931Z,1.05
2023-01-17T00:05:28.725Z,0.98
2023-01-17T00:07:55.413Z,1.13
2023-01-17T00:10:23.836Z,0.95
2023-01-17T00:12:52.135Z,0.80
2023-01-17T00:15:21.134Z,0.93
2023-01-17T00:17:48.185Z,0.80
2023-01-17T00:20:15.960Z,0.90
2023-01-17T00:22:43.772Z,1.10
2023-01-17T00:25:11.854Z,0.70
2023-01-17T00:27:38.609Z,0.55
2023-01-17T00:30:06.648Z,0.88
2023-01-17T00:32:34.666Z,0.70
2023-01-17T00:35:01.389Z,0.65
2023-01-17T00:37:28.113Z,0.73
2023-01-17T00:39:54.769Z,0.73
2023-01-17T00:42:21.475Z,0.75
2023-01-17T00:44:48.149Z,0.95
2023-01-17T00:47:14.814Z,0.70
2023-01-17T00:49:42.857Z,0.88
2023-01-17T00:52:09.574Z,0.60
2023-01-17T00:54:36.432Z,0.70
2023-01-17T00:57:04.179Z,0.60
2023-01-17T00:59:30.837Z,0.57
2023-01-17T01:01:57.741Z,0.77
2023-01-17T01:04:24.570Z,0.68
2023-01-17T01:06:52.599Z,0.60
2023-01-17T01:09:19.313Z,0.80
2023-01-17T01:11:46.054Z,0.67
2023-01-17T01:14:12.915Z,0.73
2023-01-17T01:16:39.607Z,0.68
2023-01-17T01:19:06.378Z,0.63
2023-01-17T01:21:33.468Z,0.70
2023-01-17T01:24:01.519Z,0.80
2023-01-17T01:26:28.184Z,0.90
2023-01-17T01:28:54.872Z,0.65
2023-01-17T01:31:21.668Z,0.80
2023-01-17T01:33:48.399Z,0.73
2023-01-17T01:36:15.066Z,0.80
2023-01-17T01:38:42.581Z,0.75
2023-01-17T01:41:10.637Z,1.13
2023-01-17T01:43:44.147Z,0.50
2023-01-17T01:46:13.265Z,1.10
2023-01-17T01:48:42.247Z,0.88
2023-01-17T01:51:13.838Z,0.90
2023-01-17T01:53:44.114Z,1.02
2023-01-17T01:56:14.649Z,1.15
2023-01-17T01:58:46.646Z,1.27
2023-01-17T02:01:14.336Z,0.90
2023-01-17T02:03:42.093Z,1.25
2023-01-17T02:06:18.989Z,0.90
2023-01-17T02:08:45.856Z,0.90
2023-01-17T02:11:14.173Z,0.70
2023-01-17T02:13:41.548Z,0.80
2023-01-17T02:16:17.383Z,0.70
2023-01-17T02:18:52.681Z,0.77
2023-01-17T02:21:23.535Z,0.60
2023-01-17T02:24:17.790Z,0.75
2023-01-17T02:26:54.744Z,0.90
2023-01-17T02:29:51.914Z,0.70
2023-01-17T02:32:29.897Z,0.73
2023-01-17T02:35:01.980Z,0.50
2023-01-17T02:37:36.627Z,1.30
2023-01-17T02:40:09.443Z,0.63
2023-01-17T02:42:40.158Z,0.80
2023-01-17T02:45:07.645Z,0.88
2023-01-17T02:47:35.823Z,0.60
2023-01-17T02:50:08.244Z,1.10
2023-01-17T02:52:49.973Z,0.80
2023-01-17T02:55:27.304Z,0.80
2023-01-17T02:58:08.947Z,0.60
2023-01-17T03:00:49.011Z,1.02
2023-01-17T03:03:22.949Z,0.70
2023-01-17T03:05:54.154Z,0.60
2023-01-17T03:08:22.132Z,0.70
2023-01-17T03:10:48.979Z,0.82
2023-01-17T03:13:15.753Z,0.70
2023-01-17T03:15:43.044Z,0.82
2023-01-17T03:18:12.565Z,0.70
2023-01-17T03:20:41.104Z,0.52
2023-01-17T03:23:07.822Z,0.52
2023-01-17T03:25:34.523Z,0.60
2023-01-17T03:28:01.212Z,0.88
2023-01-17T03:30:28.025Z,0.60
2023-01-17T03:32:54.730Z,0.80
2023-01-17T03:35:21.423Z,0.77
2023-01-17T03:37:49.617Z,0.82
2023-01-17T03:40:16.812Z,0.50
2023-01-17T03:42:43.517Z,0.83
2023-01-17T03:45:11.212Z,0.60
2023-01-17T03:47:37.892Z,0.70
2023-01-17T03:50:05.494Z,0.80
2023-01-17T03:52:32.218Z,0.80
2023-01-17T03:55:01.031Z,1.10
2023-01-17T03:57:27.672Z,0.68
2023-01-17T03:59:54.353Z,0.68
2023-01-17T04:02:21.050Z,0.75
2023-01-17T04:04:47.720Z,0.70
2023-01-17T04:07:14.398Z,0.70
2023-01-17T04:09:41.042Z,0.85
2023-01-17T04:12:09.105Z,0.70
2023-01-17T04:14:35.795Z,0.70
2023-01-17T04:17:02.548Z,1.23
2023-01-17T04:19:30.034Z,0.90
2023-01-17T04:21:56.681Z,0.50
2023-01-17T04:24:23.464Z,1.00
2023-01-17T04:26:50.110Z,0.75
2023-01-17T04:29:18.405Z,0.77
2023-01-17T04:31:45.182Z,0.90
2023-01-17T04:34:11.910Z,0.90
2023-01-17T04:36:38.596Z,0.82
2023-01-17T04:39:05.424Z,0.85
2023-01-17T04:41:32.211Z,0.85
2023-01-17T04:43:59.063Z,1.10
2023-01-17T04:46:27.190Z,1.13
2023-01-17T04:48:53.955Z,1.10
2023-01-17T04:51:20.621Z,0.88
2023-01-17T04:53:47.287Z,1.30
2023-01-17T04:56:14.026Z,1.00
2023-01-17T04:58:40.706Z,1.23
2023-01-17T05:01:08.579Z,1.00
2023-01-17T05:03:36.812Z,1.30
2023-01-17T05:06:03.794Z,1.05
2023-01-17T05:08:30.445Z,1.10
2023-01-17T05:10:57.167Z,1.00
2023-01-17T05:13:23.857Z,0.98
2023-01-17T05:15:50.602Z,1.52
2023-01-17T05:18:18.225Z,1.80
2023-01-17T05:20:46.288Z,1.83
2023-01-17T05:23:13.001Z,1.95
2023-01-17T05:25:39.740Z,1.75
2023-01-17T05:28:06.425Z,4.32
2023-01-17T05:30:33.192Z,2.22
2023-01-17T05:32:59.957Z,1.63
2023-01-17T05:35:28.876Z,1.30
2023-01-17T05:37:56.972Z,1.45
2023-01-17T05:40:26.250Z,1.67
2023-01-17T05:42:54.780Z,1.80
2023-01-17T05:45:23.710Z,1.80
2023-01-17T05:47:52.666Z,1.88
2023-01-17T05:50:21.248Z,2.20
2023-01-17T05:52:51.655Z,2.35
2023-01-17T05:55:20.358Z,3.17
2023-01-17T05:57:47.464Z,5.50
2023-01-17T06:00:15.220Z,5.03
2023-01-17T06:02:42.172Z,3.05
2023-01-17T06:05:09.441Z,2.63
2023-01-17T06:07:36.157Z,3.20
2023-01-17T06:10:03.104Z,2.85
2023-01-17T06:12:31.169Z,2.90
2023-01-17T06:14:58.077Z,2.65
2023-01-17T06:17:24.863Z,2.85
2023-01-17T06:19:51.593Z,2.80
2023-01-17T06:22:18.271Z,2.80
2023-01-17T06:24:44.938Z,3.85
2023-01-17T06:27:11.596Z,2.67
2023-01-17T06:29:39.629Z,1.80
2023-01-17T06:32:06.280Z,2.17
2023-01-17T06:34:32.953Z,1.90
2023-01-17T06:36:59.711Z,2.10
2023-01-17T06:39:26.434Z,1.50
2023-01-17T06:41:53.160Z,1.42
2023-01-17T06:44:19.818Z,2.10
2023-01-17T06:46:48.404Z,2.20
2023-01-17T06:49:15.390Z,1.67
2023-01-17T06:51:43.651Z,1.80
2023-01-17T06:54:10.880Z,1.92
2023-01-17T06:56:37.684Z,1.75
2023-01-17T06:59:04.935Z,1.80
2023-01-17T07:01:31.750Z,2.08
2023-01-17T07:04:00.122Z,2.05
2023-01-17T07:06:26.809Z,2.80
2023-01-17T07:08:53.487Z,2.20
2023-01-17T07:11:20.146Z,2.20
2023-01-17T07:13:46.792Z,2.25
2023-01-17T07:16:13.617Z,2.83
2023-01-17T07:18:40.453Z,2.40
2023-01-17T07:21:13.257Z,2.10
2023-01-17T07:23:40.230Z,2.67
2023-01-17T07:26:07.366Z,3.45
2023-01-17T07:28:34.132Z,2.58
2023-01-17T07:31:05.288Z,2.25
2023-01-17T07:33:31.926Z,1.77
2023-01-17T07:35:58.653Z,2.20
2023-01-17T07:38:26.794Z,2.13
2023-01-17T07:40:57.972Z,2.40
2023-01-17T07:43:24.626Z,2.22
2023-01-17T07:45:51.505Z,1.88
2023-01-17T07:48:19.832Z,1.80
2023-01-17T07:50:51.664Z,1.98
2023-01-17T07:53:18.316Z,2.20
2023-01-17T07:55:46.375Z,2.45
2023-01-17T07:58:13.058Z,2.70
2023-01-17T08:00:39.878Z,2.37
2023-01-17T08:03:06.583Z,2.67
2023-01-17T08:05:33.223Z,2.65
2023-01-17T08:07:59.905Z,2.33
2023-01-17T08:10:26.563Z,2.67
2023-01-17T08:12:54.587Z,2.77
2023-01-17T08:15:21.248Z,2.70
2023-01-17T08:17:49.129Z,2.50
2023-01-17T08:20:16.476Z,2.50
2023-01-17T08:22:43.183Z,2.20
2023-01-17T08:25:10.444Z,2.17
2023-01-17T08:27:37.168Z,3.30
2023-01-17T08:30:06.783Z,4.22
2023-01-17T08:32:33.554Z,3.55
2023-01-17T08:35:00.254Z,4.90
2023-01-17T08:37:26.987Z,3.25
2023-01-17T08:39:53.670Z,1.98
2023-01-17T08:42:20.405Z,2.20
2023-01-17T08:44:47.093Z,1.77
2023-01-17T08:47:15.163Z,1.88
2023-01-17T08:49:41.950Z,2.03
2023-01-17T08:52:08.618Z,1.92
2023-01-17T08:54:35.292Z,2.05
2023-01-17T08:57:01.994Z,2.03
2023-01-17T08:59:28.739Z,1.98
2023-01-17T09:01:55.479Z,1.95
2023-01-17T09:04:23.812Z,1.90
2023-01-17T09:06:50.526Z,1.92
2023-01-17T09:09:17.558Z,2.45
2023-01-17T09:11:44.260Z,1.95
2023-01-17T09:14:12.127Z,1.80
2023-01-17T09:16:38.891Z,1.70
2023-01-17T09:19:05.596Z,1.90
2023-01-17T09:21:33.636Z,2.28
2023-01-17T09:24:00.321Z,1.90
2023-01-17T09:26:28.724Z,1.95
2023-01-17T09:28:55.891Z,2.73
2023-01-17T09:31:23.582Z,5.43
2023-01-17T09:33:51.803Z,4.45
2023-01-17T09:36:18.595Z,2.60
2023-01-17T09:38:46.657Z,2.70
2023-01-17T09:41:25.309Z,2.30
2023-01-17T09:43:56.863Z,2.30
2023-01-17T09:46:26.771Z,1.48
2023-01-17T09:49:00.192Z,1.40
2023-01-17T09:51:26.925Z,1.52
2023-01-17T09:53:55.363Z,1.40
2023-01-17T09:56:25.896Z,1.70
2023-01-17T09:59:07.903Z,1.48
2023-01-17T10:01:43.291Z,1.40
2023-01-17T10:04:25.754Z,0.98
2023-01-17T10:07:03.041Z,1.30
2023-01-17T10:09:56.779Z,1.40
2023-01-17T10:12:31.114Z,1.83
2023-01-17T10:15:13.521Z,1.00
2023-01-17T10:17:52.904Z,1.60
2023-01-17T10:20:34.960Z,1.45
2023-01-17T10:23:18.700Z,1.35
2023-01-17T10:25:48.295Z,1.48
2023-01-17T10:28:16.629Z,0.90
2023-01-17T10:30:48.042Z,1.00
2023-01-17T10:33:18.490Z,0.90
2023-01-17T10:35:53.611Z,1.20
2023-01-17T10:38:24.644Z,1.42
2023-01-17T10:40:57.106Z,1.40
2023-01-17T10:43:31.377Z,1.48
2023-01-17T10:45:58.107Z,1.90
2023-01-17T10:48:36.423Z,1.30
2023-01-17T10:51:20.146Z,1.00
2023-01-17T10:53:57.377Z,0.75
2023-01-17T10:56:28.400Z,1.33
2023-01-17T10:59:11.856Z,0.98
2023-01-17T11:01:39.235Z,0.90
2023-01-17T11:04:15.305Z,1.60
2023-01-17T11:06:57.352Z,0.95
2023-01-17T11:09:37.811Z,1.10
2023-01-17T11:12:12.625Z,1.17
2023-01-17T11:14:39.313Z,1.33
2023-01-17T11:17:07.041Z,1.60
2023-01-17T11:19:35.225Z,1.17
2023-01-17T11:22:06.008Z,2.08
2023-01-17T11:24:35.632Z,2.03
2023-01-17T11:27:04.277Z,1.80
2023-01-17T11:29:36.116Z,1.23
2023-01-17T11:32:28.637Z,1.17
2023-01-17T11:35:13.671Z,0.88
2023-01-17T11:37:48.508Z,0.82
2023-01-17T11:40:22.395Z,0.85
2023-01-17T11:43:00.133Z,1.48
2023-01-17T11:45:30.093Z,2.08
2023-01-17T11:48:15.364Z,2.10
2023-01-17T11:50:46.245Z,1.50
2023-01-17T11:53:21.571Z,2.00
2023-01-17T11:55:56.901Z,1.40
2023-01-17T11:58:24.851Z,2.40
2023-01-17T12:01:00.521Z,2.63
2023-01-17T12:03:50.031Z,2.00
2023-01-17T12:06:22.653Z,2.83
2023-01-17T12:09:03.095Z,1.00
2023-01-17T12:11:38.589Z,1.17
2023-01-17T12:14:16.628Z,2.00
2023-01-17T12:16:59.055Z,1.65
2023-01-17T12:19:33.920Z,1.00
2023-01-17T12:22:17.531Z,0.70
2023-01-17T12:25:06.577Z,0.88
2023-01-17T12:27:43.650Z,0.75
2023-01-17T12:30:30.335Z,0.98
2023-01-17T12:33:17.471Z,0.90
2023-01-17T12:35:48.635Z,0.70
2023-01-17T12:38:32.211Z,0.88
2023-01-17T12:41:05.836Z,0.70
2023-01-17T12:43:34.624Z,0.85
2023-01-17T12:46:04.372Z,1.00
2023-01-17T12:48:36.364Z,1.20
2023-01-17T12:51:08.270Z,0.60
2023-01-17T12:53:40.406Z,1.10
2023-01-17T12:56:11.652Z,0.70
2023-01-17T12:58:40.950Z,0.77
2023-01-17T13:01:17.187Z,1.33
2023-01-17T13:03:58.749Z,0.65
2023-01-17T13:06:31.847Z,0.77
2023-01-17T13:09:02.494Z,1.50
2023-01-17T13:11:35.070Z,0.73
2023-01-17T13:14:02.353Z,0.85
2023-01-17T13:16:33.948Z,0.52
2023-01-17T13:19:07.992Z,0.60
2023-01-17T13:21:34.966Z,0.50
2023-01-17T13:24:15.812Z,0.63
2023-01-17T13:26:57.202Z,0.70
2023-01-17T13:29:36.253Z,0.80
2023-01-17T13:32:16.248Z,0.60
2023-01-17T13:35:12.641Z,0.75
2023-01-17T13:38:03.508Z,0.60
2023-01-17T13:40:38.550Z,0.88
2023-01-17T13:43:11.927Z,0.98
2023-01-17T13:45:39.288Z,0.60
2023-01-17T13:48:30.901Z,0.85
2023-01-17T13:51:00.548Z,1.10
2023-01-17T13:53:57.558Z,0.70
2023-01-17T13:56:27.918Z,3.33
2023-01-17T13:58:56.947Z,2.40
2023-01-17T14:02:02.075Z,0.90
2023-01-17T14:05:07.675Z,1.10
2023-01-17T14:07:43.606Z,1.27
2023-01-17T14:10:30.100Z,1.13
2023-01-17T14:12:57.049Z,1.50
2023-01-17T14:15:26.156Z,1.42
2023-01-17T14:17:58.396Z,1.20
2023-01-17T14:20:40.862Z,1.02
2023-01-17T14:23:44.658Z,1.10
2023-01-17T14:26:37.296Z,1.00
2023-01-17T14:29:40.486Z,0.80
2023-01-17T14:32:11.266Z,0.95
2023-01-17T14:34:38.161Z,0.80
2023-01-17T14:37:13.323Z,0.70
2023-01-17T14:39:45.804Z,0.80
2023-01-17T14:42:14.331Z,1.00
2023-01-17T14:44:44.690Z,0.93
2023-01-17T14:47:13.809Z,1.20
2023-01-17T14:49:40.478Z,1.30
2023-01-17T14:52:14.946Z,1.20
2023-01-17T14:54:49.083Z,1.08
2023-01-17T14:57:24.836Z,1.10
2023-01-17T14:59:51.498Z,1.20
2023-01-17T15:02:18.576Z,1.20
2023-01-17T15:04:54.484Z,1.80
2023-01-17T15:07:21.394Z,0.68
2023-01-17T15:09:49.565Z,0.90
2023-01-17T15:12:16.289Z,0.68
2023-01-17T15:14:45.454Z,0.60
2023-01-17T15:17:18.696Z,1.17
2023-01-17T15:19:47.950Z,0.82
2023-01-17T15:22:16.028Z,1.00
2023-01-17T15:24:44.175Z,0.77
2023-01-17T15:27:13.783Z,1.00
2023-01-17T15:29:41.568Z,1.00
2023-01-17T15:32:18.020Z,0.90
2023-01-17T15:34:46.683Z,0.85
2023-01-17T15:37:24.369Z,0.90
2023-01-17T15:39:51.192Z,0.95
2023-01-17T15:42:25.191Z,0.70
2023-01-17T15:44:55.466Z,0.95
2023-01-17T15:47:29.079Z,0.80
2023-01-17T15:49:56.314Z,0.75
2023-01-17T15:52:23.200Z,0.95
2023-01-17T15:54:51.375Z,1.30
2023-01-17T15:57:24.029Z,1.02
2023-01-17T15:59:56.882Z,1.15
2023-01-17T16:02:30.334Z,1.02
2023-01-17T16:04:57.623Z,1.90
2023-01-17T16:07:30.961Z,1.40
2023-01-17T16:10:05.522Z,1.20
2023-01-17T16:12:33.772Z,1.50
2023-01-17T16:15:11.715Z,1.60
2023-01-17T16:17:40.210Z,1.65
2023-01-17T16:20:14.584Z,1.40
2023-01-17T16:22:41.470Z,1.00
2023-01-17T16:25:13.641Z,0.80
2023-01-17T16:27:42.271Z,1.08
2023-01-17T16:30:11.069Z,1.17
2023-01-17T16:32:37.809Z,1.00
2023-01-17T16:35:06.846Z,0.75
2023-01-17T16:37:33.539Z,1.15
2023-01-17T16:40:00.577Z,1.02
2023-01-17T16:42:28.632Z,0.82
2023-01-17T16:44:56.732Z,0.93
2023-01-17T16:47:23.388Z,0.75
2023-01-17T16:49:50.073Z,0.77
2023-01-17T16:52:16.845Z,0.90
2023-01-17T16:54:43.510Z,1.60
2023-01-17T16:57:10.168Z,1.50
2023-01-17T16:59:50.132Z,1.75
2023-01-17T17:02:19.075Z,2.60
2023-01-17T17:04:45.792Z,3.28
2023-01-17T17:07:12.676Z,3.88
2023-01-17T17:09:39.376Z,4.00
2023-01-17T17:12:06.757Z,4.55
2023-01-17T17:14:33.489Z,3.63
2023-01-17T17:17:03.123Z,5.03
2023-01-17T17:19:31.144Z,6.30
2023-01-17T17:21:58.093Z,11.53
2023-01-17T17:24:25.099Z,8.85
2023-01-17T17:26:51.906Z,9.27
2023-01-17T17:29:18.806Z,8.57
2023-01-17T17:31:45.525Z,8.70
2023-01-17T17:34:14.179Z,7.70
2023-01-17T17:36:42.879Z,7.20
2023-01-17T17:39:13.401Z,6.30
2023-01-17T17:41:42.219Z,5.78
2023-01-17T17:44:09.085Z,6.05
2023-01-17T17:46:35.844Z,6.27
2023-01-17T17:49:03.557Z,6.28
2023-01-17T17:51:32.328Z,5.55
2023-01-17T17:54:02.074Z,5.63
2023-01-17T17:56:30.500Z,5.22
2023-01-17T17:58:57.932Z,5.97
2023-01-17T18:01:24.877Z,5.05
2023-01-17T18:03:52.589Z,6.45
2023-01-17T18:06:19.745Z,7.18
2023-01-17T18:08:46.603Z,7.97
2023-01-17T18:11:16.534Z,8.50
2023-01-17T18:13:43.213Z,8.52
2023-01-17T18:16:11.807Z,9.38
2023-01-17T18:18:40.748Z,8.55
2023-01-17T18:21:10.074Z,7.97
2023-01-17T18:23:37.655Z,7.97
2023-01-17T18:26:04.733Z,7.95
2023-01-17T18:28:32.984Z,7.63
2023-01-17T18:31:05.139Z,8.00
2023-01-17T18:33:31.886Z,7.13
2023-01-17T18:36:00.171Z,7.43
2023-01-17T18:38:26.991Z,7.05
2023-01-17T18:40:53.657Z,6.05
2023-01-17T18:43:20.348Z,5.50
2023-01-17T18:45:53.706Z,7.32
2023-01-17T18:48:20.401Z,5.57
2023-01-17T18:50:55.282Z,4.97
2023-01-17T18:53:21.996Z,6.07
2023-01-17T18:55:52.606Z,5.93
2023-01-17T18:58:19.747Z,6.63
2023-01-17T19:00:46.554Z,6.80
2023-01-17T19:03:14.647Z,7.30
2023-01-17T19:05:41.326Z,6.53
2023-01-17T19:08:08.062Z,5.18
2023-01-17T19:10:34.757Z,5.55
2023-01-17T19:13:01.428Z,5.13
2023-01-17T19:15:30.285Z,5.50
2023-01-17T19:17:57.556Z,5.53
2023-01-17T19:20:25.775Z,5.65
2023-01-17T19:22:52.506Z,5.05
2023-01-17T19:25:19.291Z,7.90
2023-01-17T19:27:45.968Z,6.80
2023-01-17T19:30:13.072Z,7.68
2023-01-17T19:32:39.865Z,7.90
2023-01-17T19:35:07.106Z,10.73
2023-01-17T19:37:35.130Z,8.00
2023-01-17T19:40:01.841Z,9.77
2023-01-17T19:42:28.566Z,8.38
2023-01-17T19:44:55.251Z,8.80
2023-01-17T19:47:21.939Z,8.25
2023-01-17T19:49:48.717Z,7.77
2023-01-17T19:52:15.392Z,8.35
2023-01-17T19:54:43.459Z,6.07
2023-01-17T19:57:10.174Z,5.88
2023-01-17T19:59:36.917Z,6.82
2023-01-17T20:02:03.920Z,6.57
2023-01-17T20:04:30.840Z,6.47
2023-01-17T20:06:57.514Z,5.55
2023-01-17T20:09:24.190Z,5.60
2023-01-17T20:11:52.245Z,5.38
2023-01-17T20:14:18.927Z,5.80
2023-01-17T20:16:45.690Z,5.38
2023-01-17T20:19:12.365Z,5.35
2023-01-17T20:21:39.070Z,6.05
2023-01-17T20:24:06.381Z,5.22
2023-01-17T20:26:35.169Z,5.23
2023-01-17T20:29:04.600Z,5.05
2023-01-17T20:31:31.776Z,5.82
2023-01-17T20:33:58.473Z,5.15
2023-01-17T20:36:26.522Z,5.18
2023-01-17T20:38:53.209Z,5.03
2023-01-17T20:41:21.815Z,4.68
2023-01-17T20:43:50.469Z,4.00
2023-01-17T20:46:19.691Z,5.00
2023-01-17T20:48:47.680Z,4.35
2023-01-17T20:51:15.751Z,4.73
2023-01-17T20:53:43.653Z,4.03
2023-01-17T20:56:11.522Z,4.28
2023-01-17T20:58:38.366Z,4.03
2023-01-17T21:01:08.459Z,4.13
2023-01-17T21:03:37.683Z,3.77
2023-01-17T21:06:06.362Z,4.90
2023-01-17T21:08:35.014Z,4.35
2023-01-17T21:11:02.075Z,4.53
2023-01-17T21:13:28.836Z,4.60
2023-01-17T21:15:55.761Z,4.30
2023-01-17T21:18:24.558Z,4.60
2023-01-17T21:20:52.912Z,4.70
2023-01-17T21:23:19.938Z,5.43
2023-01-17T21:25:55.991Z,4.63
2023-01-17T21:28:23.642Z,4.20
2023-01-17T21:30:50.745Z,4.28
2023-01-17T21:33:18.142Z,3.83
2023-01-17T21:35:45.311Z,4.55
2023-01-17T21:38:13.791Z,4.18
2023-01-17T21:40:41.329Z,4.50
2023-01-17T21:43:08.118Z,4.00
2023-01-17T21:45:36.355Z,3.92
2023-01-17T21:48:03.107Z,4.00
2023-01-17T21:50:33.666Z,3.80
2023-01-17T21:53:00.722Z,3.67
2023-01-17T21:55:28.781Z,3.83
2023-01-17T21:57:55.789Z,3.22
2023-01-17T22:00:22.875Z,3.67
2023-01-17T22:02:49.619Z,3.03
2023-01-17T22:05:16.967Z,3.60
2023-01-17T22:07:44.033Z,3.15
2023-01-17T22:10:11.549Z,3.55
2023-01-17T22:12:39.607Z,3.83
2023-01-17T22:15:07.788Z,3.60
2023-01-17T22:17:34.483Z,3.73
2023-01-17T22:20:01.190Z,4.00
2023-01-17T22:22:31.890Z,3.90
2023-01-17T22:24:58.559Z,4.28
2023-01-17T22:27:25.302Z,3.60
2023-01-17T22:29:53.325Z,3.80
2023-01-17T22:32:20.013Z,3.67
2023-01-17T22:34:46.743Z,3.40
2023-01-17T22:37:13.499Z,3.90
2023-01-17T22:39:40.215Z,3.90
2023-01-17T22:42:07.183Z,3.57
2023-01-17T22:44:33.846Z,3.38
2023-01-17T22:47:01.872Z,2.80
2023-01-17T22:49:28.553Z,2.95
2023-01-17T22:51:55.250Z,3.45
2023-01-17T22:54:22.165Z,2.70
2023-01-17T22:56:48.843Z,3.50
2023-01-17T22:59:16.418Z,3.33
2023-01-17T23:01:43.178Z,2.97
2023-01-17T23:04:13.535Z,3.65
2023-01-17T23:06:41.644Z,2.47
2023-01-17T23:09:09.997Z,3.15
2023-01-17T23:11:38.249Z,2.90
2023-01-17T23:14:05.107Z,3.55
2023-01-17T23:16:31.773Z,3.15
2023-01-17T23:18:58.539Z,3.60
2023-01-17T23:21:26.542Z,3.55
2023-01-17T23:23:53.199Z,4.10
2023-01-17T23:26:19.878Z,3.05
2023-01-17T23:28:46.576Z,3.42
2023-01-17T23:31:13.319Z,3.50
2023-01-17T23:33:39.994Z,3.03
2023-01-17T23:36:06.694Z,3.10
2023-01-17T23:38:34.729Z,3.45
2023-01-17T23:41:03.208Z,3.45
2023-01-17T23:43:30.046Z,3.43
2023-01-17T23:45:56.745Z,3.35
2023-01-17T23:48:24.212Z,3.22
2023-01-17T23:50:51.103Z,3.47
2023-01-17T23:53:19.495Z,3.17
2023-01-17T23:55:48.493Z,3.90
2023-01-17T23:58:15.317Z,3.40
